Flight Track Log - Related Links

Times and Time Zones

All times are in EDT time to prevent confusion due to time zone crossing. See the ASQ4577 flight status page for this flight to view local times or setup timezone preferences in your user account.

Time Position Orientation Groundspeed Altitude Reporting Facility
EDT Latitude Longitude Course Direction KTS MPH feet Rate Location/Type
Sun 06:57:34 PM 41.3939 -81.8869 75° East 158 182 2,000  Level Cleveland Center
Sun 06:58:11 PM 41.3850 -81.9225 252° West 174 200 3,500 2,323 Climbing Cleveland Center
Sun 06:59:07 PM 41.3761 -81.9778 258° West 212 244 5,600 2,121 Climbing Cleveland Center
Sun 07:00:00 PM 41.6771 -81.5729 37° Northeast  Level FlightAware Approximate
Sun 07:00:07 PM 41.4133 -82.0117 326° Northwest 254 292 7,600  Level Cleveland Center
Sun 07:01:00 PM 41.7703 -81.4798 37° Northeast  Level FlightAware Approximate
Sun 07:01:08 PM 41.4683 -81.9381 45° Northeast 306 352 9,500  Level Cleveland Center
Sun 07:02:00 PM 41.8366 -81.3669 75° East  Level FlightAware Approximate
Sun 07:02:07 PM 41.5297 -81.8481 48° Northeast 351 404 10,700  Level Cleveland Center
Sun 07:03:07 PM 41.5997 -81.7494 46° Northeast 360 414 11,800 645 Climbing Cleveland Center
Sun 07:04:08 PM 41.6736 -81.6478 46° Northeast 407 468 12,000 100 Climbing Cleveland Center
Sun 07:05:07 PM 41.7494 -81.5433 46° Northeast 395 455 12,000 550 Level Cleveland Center
Sun 07:06:08 PM 41.8192 -81.4469 46° Northeast 395 455 13,100 1,400 Climbing Cleveland Center
Sun 07:07:07 PM 41.8556 -81.3108 70° East 375 432 14,800 1,462 Climbing Cleveland Center
Sun 07:08:07 PM 41.8792 -81.1661 78° East 387 445 16,000 1,250 Climbing Cleveland Center
Sun 07:09:07 PM 41.9028 -81.0128 78° East 406 467 17,300 1,250 Climbing Cleveland Center
Sun 07:10:07 PM 41.9264 -80.8622 78° East 415 478 18,500 1,150 Climbing Cleveland Center
Sun 07:11:07 PM 41.9536 -80.6919 78° East 415 478 19,600 1,091 Climbing Cleveland Center
Sun 07:12:08 PM 41.9808 -80.5300 77° East 428 493 20,700 1,050 Climbing Cleveland Center
Sun 07:13:07 PM 42.0056 -80.3625 79° East 445 512 21,700 1,008 Climbing Cleveland Center
Sun 07:14:07 PM 42.0303 -80.1947 79° East 452 520 22,700 1,100 Climbing Cleveland Center
Sun 07:15:07 PM 42.0567 -80.0239 78° East 460 529 23,900 1,050 Climbing Cleveland Center
Sun 07:16:07 PM 42.0828 -79.8558 78° East 460 529 24,800 1,150 Climbing Cleveland Center
Sun 07:17:07 PM 42.1086 -79.6792 79° East 460 529 26,200 1,438 Climbing Cleveland Center
Sun 07:18:08 PM 42.1342 -79.5081 79° East 467 537 27,700 1,250 Climbing Cleveland Center
Sun 07:19:07 PM 42.1597 -79.3367 79° East 467 537 28,700 857 Climbing Cleveland Center
Sun 07:20:07 PM 42.1825 -79.1625 80° East 467 537 29,400 793 Climbing Cleveland Center
Sun 07:21:08 PM 42.2053 -78.9797 80° East 473 544 30,300 800 Climbing Cleveland Center
Sun 07:22:07 PM 42.2278 -78.8139 80° East 489 563 31,000 353 Climbing Cleveland Center
Sun 07:23:07 PM 42.2539 -78.6222 80° East 502 578 31,000  Level Cleveland Center
Sun 07:24:07 PM 42.2794 -78.4167 80° East 527 606 31,000  Level Cleveland Center
Sun 07:25:07 PM 42.3044 -78.2136 80° East 546 628 31,000  Level Cleveland Center
Sun 07:26:07 PM 42.3272 -78.0106 81° East 546 628 31,000 -545 Level Cleveland Center
Sun 07:27:08 PM 42.3497 -77.8100 81° East 541 623 29,900 -1,000 Descending Cleveland Center
Sun 07:28:07 PM 42.3742 -77.6150 80° East 536 617 29,000 -303 Descending Cleveland Center
Sun 07:30:06 PM 42.4186 -77.2192 81° East 561 646 29,000  Level Boston Center
Sun 07:31:06 PM 42.4422 -76.9986 82° East 546 628 29,000  Level Boston Center
Sun 07:32:06 PM 42.4647 -76.7975 81° East 536 617 29,000  Level Boston Center
Sun 07:33:06 PM 42.4869 -76.5936 82° East 536 617 29,000  Level Boston Center
Sun 07:34:07 PM 42.5089 -76.3919 82° East 536 617 29,000  Level Boston Center
Sun 07:35:06 PM 42.5306 -76.1850 82° East 541 623 29,000  Level Boston Center
Sun 07:36:18 PM 42.5494 -75.9803 83° East 541 623 29,000 -318 Level Boston Center
Sun 07:37:18 PM 42.5756 -75.7336 82° East 546 628 28,300 -1,550 Descending Boston Center
Sun 07:38:18 PM 42.5939 -75.5314 83° East 546 628 25,900 -2,750 Descending Boston Center
Sun 07:39:18 PM 42.6136 -75.3378 82° East 533 613 22,800 -2,950 Descending Boston Center
Sun 07:40:18 PM 42.6469 -75.1669 75° East 499 574 20,000 -2,650 Descending Boston Center
Sun 07:41:18 PM 42.6922 -75.0108 68° East 460 529 17,500 -2,602 Descending Boston Center
Sun 07:42:11 PM 42.7306 -74.8767 69° East 433 498 15,100 -2,602 Descending Boston Center
Sun 07:43:11 PM 42.7714 -74.7256 70° East 421 484 12,600 -1,983 Descending Boston Center
Sun 07:44:12 PM 42.8075 -74.5825 71° East 399 459 11,100 -803 Descending Boston Center
Sun 07:45:18 PM 42.8372 -74.4392 74° East 356 410 10,900 -645 Descending Boston Center
Sun 07:46:13 PM 42.8139 -74.3450 109° East 301 346 9,800 -1,603 Descending Boston Center
Sun 07:47:14 PM 42.7592 -74.2414 126° Southeast 312 359 7,800 -1,721 Descending Boston Center
Sun 07:48:15 PM 42.7106 -74.1494 126° Southeast 300 345 6,300 -1,328 Descending Boston Center
Sun 07:49:16 PM 42.6661 -74.0581 123° Southeast 284 327 5,100 -992 Descending Boston Center
Sun 07:50:16 PM 42.6064 -74.0056 147° Southeast 266 306 4,300 -793 Descending Boston Center
Sun 07:51:17 PM 42.5531 -73.9367 136° Southeast 273 314 3,500 -793 Descending Boston Center
Sun 07:52:17 PM 42.5875 -73.8614 58° Northeast 235 270 2,700 -800 Descending Boston Center

Login

Don't have an account? Register now (free) for customized features, flight alerts, and more!